DW0416 Weather Reports


Display with metric or nautical units.
time (UTC)temp
F
wind
direction
speed
MPH
gust
MPH
rain 1hr
in
rain 24hr
in
rain mn
in
humidity
%
barometer
mb
20240616174506 61 155 2.0 8.0 0.00 0.00 0.00 25 1015.4
20240616173003 60 161 2.0 11.0 0.00 0.00 0.00 23 1015.3
20240616171509 60 159 4.0 9.0 0.00 0.00 0.00 24 1015.3
20240616170009 59 164 5.0 11.0 0.00 0.00 0.00 26 1015.5
20240616164508 57 205 3.0 9.0 0.00 0.00 0.00 25 1015.7
20240616163005 56 240 4.0 9.0 0.00 0.00 0.00 26 1015.8
20240616161510 56 243 2.0 9.0 0.00 0.00 0.00 28 1015.9
20240616160008 56 264 3.0 7.0 0.00 0.00 0.00 26 1016.1
20240616154511 55 240 2.0 5.0 0.00 0.00 0.00 27 1016.3
20240616153029 55 203 1.0 4.0 0.00 0.00 0.00 26 1016.5
20240616151514 53 263 1.0 3.0 0.00 0.00 0.00 29 1016.4
20240616150008 53 123 0.0 3.0 0.00 0.00 0.00 30 1016.4
20240616144502 53 19 0.0 4.0 0.00 0.00 0.00 29 1016.4
20240616143003 52 274 0.0 3.0 0.00 0.00 0.00 31 1016.5
20240616141506 51 284 1.0 3.0 0.00 0.00 0.00 33 1016.4
20240616140005 51 9 1.0 2.0 0.00 0.00 0.00 29 1016.2
20240616134509 51 278 1.0 3.0 0.00 0.00 0.00 29 1016.0
20240616133008 51 58 0.0 9.0 0.00 0.00 0.00 28 1015.9
20240616131502 51 53 2.0 6.0 0.00 0.00 0.00 28 1016.0
20240616130005 50 52 3.0 5.0 0.00 0.00 0.00 31 1016.0
20240616124513 50 36 3.0 4.0 0.00 0.00 0.00 30 1015.9
20240616123009 50 44 3.0 7.0 0.00 0.00 0.00 32 1015.9
20240616121507 50 56 1.0 3.0 0.00 0.00 0.00 30 1015.8
20240616120004 50 46 2.0 4.0 0.00 0.00 0.00 33 1015.7
20240616114506 51 38 0.0 2.0 0.00 0.00 0.00 36 1015.7
20240616113007 52 121 0.0 2.0 0.00 0.00 0.00 34 1015.6
20240616111511 52 127 1.0 2.0 0.00 0.00 0.00 31 1015.5
20240616110002 53 124 0.0 4.0 0.00 0.00 0.00 31 1015.5
20240616104503 53 129 2.0 7.0 0.00 0.00 0.00 32 1015.3
20240616103007 53 98 3.0 8.0 0.00 0.00 0.00 32 1015.2
20240616101510 54 126 4.0 9.0 0.00 0.00 0.00 32 1015.1
20240616100011 54 176 4.0 8.0 0.00 0.00 0.00 31 1014.9
20240616094501 54 236 4.0 10.0 0.00 0.00 0.00 30 1015.0
20240616093006 55 203 4.0 7.0 0.00 0.00 0.00 28 1015.3
20240616091508 55 136 3.0 7.0 0.00 0.00 0.00 29 1015.2
20240616090010 55 117 4.0 8.0 0.00 0.00 0.00 28 1015.4
20240616084512 55 210 4.0 8.0 0.00 0.00 0.00 29 1015.3
20240616083005 56 137 4.0 11.0 0.00 0.00 0.00 28 1015.5
20240616081506 56 137 2.0 7.0 0.00 0.00 0.00 28 1015.5
20240616080009 56 153 1.0 3.0 0.00 0.00 0.00 29 1015.6
20240616074503 56 74 2.0 4.0 0.00 0.00 0.00 26 1015.6
20240616073009 55 107 2.0 4.0 0.00 0.00 0.00 26 1015.7
20240616071504 55 79 1.0 3.0 0.00 0.00 0.00 30 1015.8
20240616070007 55 76 0.0 3.0 0.00 0.00 0.00 30 1015.5
20240616064510 56 101 0.0 1.0 0.00 0.00 0.00 33 1015.6
20240616063012 56 125 1.0 2.0 0.00 0.00 0.00 33 1016.0
20240616061504 57 70 1.0 6.0 0.00 0.00 0.00 31 1016.2
20240616060007 56 145 4.0 6.0 0.00 0.00 0.00 34 1016.5
20240616054508 56 132 1.0 3.0 0.00 0.00 0.00 38 1016.9
20240616053028 56 85 3.0 4.0 0.00 0.00 0.00 38 1016.5
20240616051513 57 158 1.0 4.0 0.00 0.00 0.00 39 1016.7
20240616050005 58 8 1.0 4.0 0.00 0.00 0.00 37 1016.7
20240616044507 58 334 2.0 5.0 0.00 0.00 0.00 37 1016.9
20240616043011 58 4 2.0 5.0 0.00 0.00 0.00 38 1016.9
20240616041512 59 30 3.0 5.0 0.00 0.00 0.00 39 1016.6
20240616040021 59 335 3.0 7.0 0.00 0.00 0.00 40 1016.1
20240616034504 59 339 3.0 6.0 0.00 0.00 0.00 42 1015.8
20240616033007 60 242 0.0 2.0 0.00 0.00 0.00 39 1015.3
20240616031511 61 161 1.0 3.0 0.00 0.00 0.00 38 1015.3
20240616030019 61 66 0.0 2.0 0.00 0.00 0.00 39 1015.1
20240616024513 62 294 0.0 3.0 0.00 0.00 0.00 40 1014.8
20240616023007 62 46 1.0 3.0 0.00 0.00 0.00 41 1014.6
20240616021508 63 269 1.0 5.0 0.00 0.00 0.00 39 1014.7
20240616020001 64 338 1.0 4.0 0.00 0.00 0.00 38 1014.6
20240616014503 65 315 1.0 3.0 0.00 0.00 0.00 36 1014.5
20240616013003 65 236 2.0 5.0 0.00 0.00 0.00 33 1014.4
20240616011503 66 277 1.0 4.0 0.00 0.00 0.00 34 1014.3
20240616010002 66 282 3.0 10.0 0.00 0.00 0.00 31 1014.2
20240616004502 67 298 4.0 9.0 0.00 0.00 0.00 30 1014.2
20240616003008 67 283 2.0 5.0 0.00 0.00 0.00 31 1014.1
20240616001504 67 267 4.0 8.0 0.00 0.00 0.00 27 1013.8
20240616000004 68 230 2.0 5.0 0.00 0.00 0.00 27 1013.9
20240615234503 68 280 3.0 8.0 0.00 0.00 0.00 27 1014.0
20240615233002 68 224 4.0 10.0 0.00 0.00 0.00 27 1014.0
20240615231504 69 286 4.0 13.0 0.00 0.00 0.00 25 1013.9
20240615230006 69 259 3.0 10.0 0.00 0.00 0.00 25 1014.1
20240615224503 70 235 6.0 14.0 0.00 0.00 0.00 29 1014.2
20240615223004 70 302 5.0 14.0 0.00 0.00 0.00 30 1013.9
20240615221503 70 309 3.0 7.0 0.00 0.00 0.00 31 1013.9
20240615220005 70 281 5.0 13.0 0.00 0.00 0.00 30 1014.0
20240615214503 70 295 7.0 12.0 0.00 0.00 0.00 31 1013.9
20240615213004 70 279 7.0 11.0 0.00 0.00 0.00 30 1014.0
20240615211507 70 222 5.0 12.0 0.00 0.00 0.00 32 1013.9
20240615210006 70 290 6.0 11.0 0.00 0.00 0.00 31 1013.9
20240615204504 71 262 2.0 12.0 0.00 0.00 0.00 30 1013.9
20240615203004 70 8 4.0 12.0 0.00 0.00 0.00 30 1014.1
20240615201505 70 262 4.0 10.0 0.00 0.00 0.00 29 1014.1
20240615200004 71 259 4.0 10.0 0.00 0.00 0.00 30 1014.1
20240615194515 71 243 4.0 7.0 0.00 0.00 0.00 29 1014.1
20240615193007 70 277 8.0 15.0 0.00 0.00 0.00 28 1014.3
20240615191507 71 289 4.0 10.0 0.00 0.00 0.00 30 1014.5
20240615190007 72 155 5.0 13.0 0.00 0.00 0.00 29 1014.3
20240615184507 70 246 4.0 7.0 0.00 0.00 0.00 30 1014.4
20240615183008 72 142 10.0 17.0 0.00 0.00 0.00 30 1014.5
20240615181507 72 278 4.0 12.0 0.00 0.00 0.00 30 1014.5
20240615180009 71 157 7.0 14.0 0.00 0.00 0.00 31 1014.5